createdAt,value
2019-02-09T00:00:49.978Z,8.88
2019-02-09T00:07:58.613Z,9.00
2019-02-09T00:10:38.367Z,8.73
2019-02-09T00:13:15.844Z,10.05
2019-02-09T00:15:56.481Z,9.20
2019-02-09T00:18:33.808Z,8.75
2019-02-09T00:21:10.781Z,9.28
2019-02-09T00:23:48.012Z,9.33
2019-02-09T00:26:24.751Z,9.23
2019-02-09T00:29:01.934Z,10.08
2019-02-09T00:31:39.431Z,8.88
2019-02-09T00:34:16.301Z,9.55
2019-02-09T00:36:53.639Z,9.05
2019-02-09T00:39:31.255Z,8.85
2019-02-09T00:42:08.670Z,8.90
2019-02-09T00:44:47.246Z,9.05
2019-02-09T00:47:24.872Z,9.15
2019-02-09T00:50:03.936Z,8.88
2019-02-09T00:52:44.099Z,9.90
2019-02-09T00:55:23.358Z,9.78
2019-02-09T00:58:05.731Z,9.33
2019-02-09T01:00:44.877Z,9.45
2019-02-09T01:03:26.556Z,9.63
2019-02-09T01:06:08.539Z,9.45
2019-02-09T01:08:47.811Z,9.70
2019-02-09T01:11:26.573Z,8.53
2019-02-09T01:14:04.774Z,8.98
2019-02-09T01:16:42.671Z,8.73
2019-02-09T01:19:20.092Z,7.47
2019-02-09T01:21:59.567Z,8.25
2019-02-09T01:24:40.335Z,8.23
2019-02-09T01:27:35.786Z,8.33
2019-02-09T01:30:15.247Z,7.67
2019-02-09T01:32:56.336Z,8.05
2019-02-09T01:39:27.237Z,8.60
2019-02-09T01:48:42.621Z,9.13
2019-02-09T01:51:21.640Z,9.18
2019-02-09T01:54:05.983Z,11.68
2019-02-09T01:56:50.528Z,9.70
2019-02-09T01:59:34.917Z,8.85
2019-02-09T02:02:24.459Z,9.13
2019-02-09T02:05:04.674Z,8.68
2019-02-09T02:08:05.193Z,9.45
2019-02-09T02:10:45.743Z,8.98
2019-02-09T02:19:47.078Z,8.45
2019-02-09T02:22:26.837Z,7.78
2019-02-09T02:25:08.991Z,7.10
2019-02-09T02:33:56.560Z,10.82
2019-02-09T02:44:46.774Z,9.93
2019-02-09T02:47:31.284Z,11.22
2019-02-09T02:50:10.731Z,9.90
2019-02-09T03:05:55.831Z,10.85
2019-02-09T03:32:24.674Z,13.72
2019-02-09T03:39:59.568Z,12.98
2019-02-09T03:47:40.236Z,12.60
2019-02-09T04:13:21.017Z,13.83
2019-02-09T04:23:11.860Z,13.40
2019-02-09T04:25:50.236Z,14.20
2019-02-09T04:28:28.855Z,14.28
2019-02-09T04:31:07.094Z,14.85
2019-02-09T04:38:02.507Z,18.62
2019-02-09T04:40:44.065Z,14.63
2019-02-09T04:47:11.661Z,15.35
2019-02-09T04:50:32.911Z,14.53
2019-02-09T04:53:43.966Z,13.78
2019-02-09T04:56:29.286Z,13.85
2019-02-09T05:10:05.684Z,13.08
2019-02-09T05:12:53.015Z,11.50
2019-02-09T05:15:31.436Z,11.20
2019-02-09T05:18:09.874Z,10.70
2019-02-09T05:21:59.708Z,11.38
2019-02-09T05:25:05.495Z,11.10
2019-02-09T05:27:42.633Z,10.98
2019-02-09T05:30:41.943Z,10.75
2019-02-09T05:33:24.235Z,10.32
2019-02-09T05:44:04.132Z,10.43
2019-02-09T05:46:42.942Z,10.18
2019-02-09T05:49:24.260Z,10.25
2019-02-09T05:52:10.929Z,10.23
2019-02-09T05:54:48.150Z,10.70
2019-02-09T05:57:29.119Z,11.48
2019-02-09T06:01:32.353Z,10.30
2019-02-09T06:11:51.329Z,11.15
2019-02-09T06:22:13.145Z,9.98
2019-02-09T06:25:25.557Z,10.82
2019-02-09T06:32:15.222Z,10.85
2019-02-09T06:35:14.631Z,10.35
2019-02-09T06:37:53.471Z,10.15
2019-02-09T06:40:35.925Z,10.63
2019-02-09T06:45:15.506Z,9.85
2019-02-09T06:47:54.715Z,9.83
2019-02-09T06:50:35.218Z,10.65
2019-02-09T06:53:17.780Z,10.85
2019-02-09T06:55:58.826Z,11.10
2019-02-09T07:02:09.178Z,10.90
2019-02-09T07:04:50.433Z,11.60
2019-02-09T07:07:41.034Z,11.53
2019-02-09T07:10:41.158Z,12.10
2019-02-09T07:13:22.160Z,10.10
2019-02-09T07:16:02.895Z,10.70
2019-02-09T07:18:45.716Z,11.08
2019-02-09T07:21:25.829Z,12.93
2019-02-09T07:24:05.170Z,11.70
2019-02-09T07:26:45.466Z,10.65
2019-02-09T07:29:27.931Z,11.28
2019-02-09T07:32:11.464Z,11.33
2019-02-09T07:34:50.320Z,11.55
2019-02-09T07:37:31.559Z,10.48
2019-02-09T07:40:10.709Z,11.90
2019-02-09T07:42:50.814Z,11.80
2019-02-09T07:45:31.972Z,10.78
2019-02-09T07:48:12.128Z,11.93
2019-02-09T07:50:58.246Z,11.03
2019-02-09T07:53:39.136Z,10.23
2019-02-09T07:56:19.420Z,11.22
2019-02-09T07:58:58.721Z,11.40
2019-02-09T08:01:38.296Z,11.03
2019-02-09T08:04:18.142Z,10.58
2019-02-09T08:07:00.317Z,12.33
2019-02-09T08:09:40.735Z,10.38
2019-02-09T08:12:25.673Z,10.90
2019-02-09T08:15:05.836Z,10.50
2019-02-09T08:17:51.108Z,11.68
2019-02-09T08:20:33.458Z,10.78
2019-02-09T08:23:17.850Z,11.57
2019-02-09T08:26:03.761Z,10.23
2019-02-09T08:28:51.290Z,10.63
2019-02-09T08:31:32.359Z,10.55
2019-02-09T08:34:11.986Z,12.13
2019-02-09T08:36:56.663Z,11.73
2019-02-09T08:39:35.715Z,11.40
2019-02-09T08:42:15.990Z,12.05
2019-02-09T08:44:55.151Z,11.22
2019-02-09T08:47:36.026Z,12.70
2019-02-09T08:50:22.010Z,13.40
2019-02-09T08:53:01.248Z,12.35
2019-02-09T08:55:45.694Z,11.55
2019-02-09T08:58:24.927Z,13.00
2019-02-09T09:01:04.966Z,12.43
2019-02-09T09:03:45.385Z,11.85
2019-02-09T09:06:24.266Z,13.15
2019-02-09T09:09:03.030Z,13.70
2019-02-09T09:11:43.406Z,13.68
2019-02-09T09:14:22.637Z,12.40
2019-02-09T09:17:02.897Z,12.58
2019-02-09T09:19:43.491Z,12.47
2019-02-09T09:22:22.606Z,13.13
2019-02-09T09:25:04.170Z,12.75
2019-02-09T09:27:44.049Z,13.15
2019-02-09T09:30:27.435Z,15.30
2019-02-09T09:33:06.553Z,13.08
2019-02-09T09:35:46.590Z,11.80
2019-02-09T09:38:26.068Z,12.35
2019-02-09T09:41:06.214Z,11.38
2019-02-09T09:43:46.867Z,12.28
2019-02-09T09:46:29.614Z,11.83
2019-02-09T09:49:08.792Z,12.88
2019-02-09T09:51:48.063Z,11.48
2019-02-09T09:54:32.317Z,12.67
2019-02-09T09:57:14.787Z,12.37
2019-02-09T10:00:00.325Z,12.98
2019-02-09T10:02:43.864Z,13.18
2019-02-09T10:05:37.566Z,13.43
2019-02-09T10:08:26.556Z,13.68
2019-02-09T10:11:09.316Z,13.25
2019-02-09T10:13:53.048Z,13.78
2019-02-09T10:16:32.354Z,13.22
2019-02-09T10:19:36.013Z,12.93
2019-02-09T10:23:12.361Z,13.00
2019-02-09T10:25:55.363Z,13.60
2019-02-09T10:28:52.244Z,13.18
2019-02-09T10:36:01.500Z,13.83
2019-02-09T10:43:11.738Z,12.60
2019-02-09T10:45:52.089Z,13.28
2019-02-09T10:55:58.995Z,13.03
2019-02-09T10:58:42.229Z,13.22
2019-02-09T11:05:35.971Z,13.70
2019-02-09T11:09:11.298Z,13.20
2019-02-09T11:12:26.910Z,12.88
2019-02-09T11:42:33.968Z,10.90
2019-02-09T12:17:24.228Z,12.13
2019-02-09T12:20:12.465Z,12.03
2019-02-09T12:22:56.401Z,13.00
2019-02-09T12:25:41.576Z,12.70
2019-02-09T12:28:22.104Z,12.33
2019-02-09T12:31:03.381Z,11.57
2019-02-09T12:33:47.549Z,12.15
2019-02-09T12:37:12.856Z,11.63
2019-02-09T12:40:08.479Z,11.43
2019-02-09T12:43:07.005Z,15.15
2019-02-09T12:46:26.246Z,14.75
2019-02-09T12:49:29.510Z,14.78
2019-02-09T12:52:27.273Z,15.90
2019-02-09T12:56:08.245Z,15.40
2019-02-09T13:10:25.125Z,12.80
2019-02-09T13:13:13.883Z,11.85
2019-02-09T13:19:03.780Z,12.07
2019-02-09T13:22:08.837Z,11.97
2019-02-09T13:24:50.667Z,12.50
2019-02-09T13:27:30.802Z,12.15
2019-02-09T13:30:12.315Z,12.10
2019-02-09T13:32:52.567Z,11.45
2019-02-09T13:35:33.585Z,11.40
2019-02-09T13:38:32.577Z,11.85
2019-02-09T13:41:29.254Z,11.53
2019-02-09T13:44:11.019Z,11.93
2019-02-09T13:47:07.665Z,10.88
2019-02-09T13:50:20.887Z,10.70
2019-02-09T13:53:01.950Z,12.05
2019-02-09T13:56:02.170Z,10.85
2019-02-09T13:59:07.033Z,10.75
2019-02-09T14:01:49.637Z,11.73
2019-02-09T14:04:32.585Z,10.38
2019-02-09T14:07:25.808Z,10.82
2019-02-09T14:10:06.495Z,11.08
2019-02-09T14:12:47.618Z,10.72
2019-02-09T14:15:28.722Z,11.28
2019-02-09T14:18:13.433Z,10.93
2019-02-09T14:21:00.211Z,11.28
2019-02-09T14:23:49.375Z,10.72
2019-02-09T14:26:43.214Z,11.40
2019-02-09T14:29:22.923Z,10.08
2019-02-09T14:32:11.679Z,10.72
2019-02-09T14:35:15.609Z,10.25
2019-02-09T14:38:19.977Z,10.60
2019-02-09T14:40:59.518Z,10.23
2019-02-09T14:43:40.776Z,10.30
2019-02-09T14:46:24.245Z,10.75
2019-02-09T14:49:31.444Z,9.80
2019-02-09T14:52:27.712Z,9.93
2019-02-09T14:55:14.198Z,9.70
2019-02-09T14:57:59.241Z,10.05
2019-02-09T15:00:41.157Z,10.23
2019-02-09T15:03:30.411Z,9.50
2019-02-09T15:06:17.025Z,10.23
2019-02-09T15:08:59.326Z,10.00
2019-02-09T15:11:41.611Z,9.75
2019-02-09T15:14:20.637Z,10.48
2019-02-09T15:17:05.602Z,11.50
2019-02-09T15:19:45.487Z,11.22
2019-02-09T15:22:29.602Z,11.40
2019-02-09T15:25:11.643Z,10.80
2019-02-09T15:27:51.299Z,10.35
2019-02-09T15:30:42.809Z,10.20
2019-02-09T15:33:28.089Z,9.78
2019-02-09T15:36:09.628Z,10.30
2019-02-09T15:38:50.247Z,10.10
2019-02-09T15:41:29.629Z,10.40
2019-02-09T15:44:10.391Z,10.03
2019-02-09T15:46:50.843Z,10.60
2019-02-09T15:49:31.731Z,10.55
2019-02-09T15:52:11.953Z,10.28
2019-02-09T15:54:52.311Z,11.68
2019-02-09T15:57:31.528Z,12.43
2019-02-09T16:00:12.450Z,12.70
2019-02-09T16:02:57.479Z,12.18
2019-02-09T16:05:37.505Z,11.73
2019-02-09T16:08:17.726Z,12.90
2019-02-09T16:10:56.977Z,12.07
2019-02-09T16:13:45.644Z,12.43
2019-02-09T16:16:20.415Z,12.95
2019-02-09T16:18:59.606Z,12.75
2019-02-09T16:21:42.277Z,14.43
2019-02-09T16:24:21.445Z,13.68
2019-02-09T16:27:00.811Z,13.75
2019-02-09T16:29:40.725Z,12.70
2019-02-09T16:32:22.238Z,12.05
2019-02-09T16:35:02.650Z,14.13
2019-02-09T16:37:42.678Z,13.83
2019-02-09T16:40:23.596Z,12.03
2019-02-09T16:43:06.307Z,13.05
2019-02-09T16:45:50.551Z,11.65
2019-02-09T16:48:34.734Z,11.88
2019-02-09T16:51:18.659Z,10.88
2019-02-09T16:54:03.983Z,10.95
2019-02-09T16:56:45.454Z,10.88
2019-02-09T16:59:24.636Z,10.58
2019-02-09T17:02:04.183Z,9.95
2019-02-09T17:04:47.451Z,11.45
2019-02-09T17:07:31.296Z,10.50
2019-02-09T17:10:14.682Z,11.40
2019-02-09T17:12:55.254Z,11.00
2019-02-09T17:15:39.472Z,11.05
2019-02-09T17:18:20.120Z,10.25
2019-02-09T17:21:01.796Z,9.00
2019-02-09T17:23:44.117Z,10.05
2019-02-09T17:26:22.630Z,9.50
2019-02-09T17:29:03.036Z,10.65
2019-02-09T17:31:48.471Z,9.65
2019-02-09T17:34:29.047Z,9.83
2019-02-09T17:37:10.378Z,9.15
2019-02-09T17:39:54.658Z,8.95
2019-02-09T17:42:35.939Z,9.00
2019-02-09T17:45:19.864Z,9.73
2019-02-09T17:48:01.497Z,9.15
2019-02-09T17:50:44.767Z,9.03
2019-02-09T17:53:25.307Z,10.55
2019-02-09T17:56:04.322Z,10.30
2019-02-09T17:58:45.375Z,10.68
2019-02-09T18:01:26.473Z,10.25
2019-02-09T18:04:06.842Z,10.15
2019-02-09T18:06:48.379Z,11.50
2019-02-09T18:09:28.584Z,12.00
2019-02-09T18:12:09.122Z,13.18
2019-02-09T18:14:50.165Z,13.22
2019-02-09T18:17:31.589Z,13.40
2019-02-09T18:20:15.374Z,13.08
2019-02-09T18:22:58.413Z,14.38
2019-02-09T18:25:48.988Z,14.73
2019-02-09T18:28:32.559Z,13.30
2019-02-09T18:31:11.777Z,13.75
2019-02-09T18:33:54.426Z,13.78
2019-02-09T18:36:34.948Z,14.07
2019-02-09T18:39:16.594Z,12.98
2019-02-09T18:41:57.584Z,13.28
2019-02-09T18:44:37.430Z,12.37
2019-02-09T18:47:16.217Z,14.20
2019-02-09T18:49:55.711Z,13.55
2019-02-09T18:52:36.076Z,13.95
2019-02-09T18:55:18.762Z,12.63
2019-02-09T18:57:58.614Z,13.15
2019-02-09T19:00:47.025Z,13.60
2019-02-09T19:03:33.118Z,13.75
2019-02-09T19:06:12.201Z,13.10
2019-02-09T19:08:52.510Z,12.85
2019-02-09T19:11:37.528Z,13.08
2019-02-09T19:14:18.664Z,12.85
2019-02-09T19:17:03.788Z,12.68
2019-02-09T19:19:43.509Z,12.58
2019-02-09T19:22:26.125Z,13.90
2019-02-09T19:25:08.720Z,13.80
2019-02-09T19:27:52.113Z,15.38
2019-02-09T19:30:32.121Z,14.83
2019-02-09T19:33:11.524Z,13.48
2019-02-09T19:35:50.390Z,14.63
2019-02-09T19:38:32.872Z,13.78
2019-02-09T19:41:12.143Z,14.20
2019-02-09T19:43:51.187Z,14.80
2019-02-09T19:46:30.141Z,14.73
2019-02-09T19:49:10.437Z,14.93
2019-02-09T19:51:49.884Z,14.75
2019-02-09T19:54:36.229Z,15.70
2019-02-09T19:57:16.533Z,14.98
2019-02-09T19:59:55.877Z,15.95
2019-02-09T20:02:36.292Z,18.62
2019-02-09T20:05:20.290Z,21.15
2019-02-09T20:08:07.243Z,15.90
2019-02-09T20:10:49.496Z,15.18
2019-02-09T20:13:28.800Z,15.78
2019-02-09T20:16:08.037Z,15.93
2019-02-09T20:18:49.495Z,15.75
2019-02-09T20:21:29.999Z,14.60
2019-02-09T20:24:11.311Z,15.50
2019-02-09T20:26:52.622Z,14.23
2019-02-09T20:29:31.813Z,15.10
2019-02-09T20:32:33.032Z,16.35
2019-02-09T20:35:13.564Z,13.83
2019-02-09T20:37:54.067Z,12.73
2019-02-09T20:40:38.942Z,13.78
2019-02-09T20:43:19.513Z,14.28
2019-02-09T20:46:00.017Z,13.48
2019-02-09T20:48:39.635Z,16.52
2019-02-09T20:51:18.821Z,13.45
2019-02-09T20:53:57.874Z,13.78
2019-02-09T20:56:37.296Z,13.83
2019-02-09T20:59:16.441Z,13.58
2019-02-09T21:01:56.658Z,14.58
2019-02-09T21:04:35.607Z,13.95
2019-02-09T21:07:14.927Z,14.03
2019-02-09T21:09:54.351Z,14.18
2019-02-09T21:12:33.367Z,13.55
2019-02-09T21:15:13.030Z,14.30
2019-02-09T21:17:52.751Z,13.88
2019-02-09T21:20:34.732Z,14.07
2019-02-09T21:23:15.282Z,14.15
2019-02-09T21:25:59.334Z,13.98
2019-02-09T21:28:38.740Z,15.03
2019-02-09T21:31:18.830Z,14.55
2019-02-09T21:33:59.666Z,14.70
2019-02-09T21:37:10.573Z,14.35
2019-02-09T21:39:55.396Z,15.13
2019-02-09T21:42:34.488Z,14.47
2019-02-09T21:45:14.615Z,15.18
2019-02-09T21:48:23.534Z,14.47
2019-02-09T21:51:08.702Z,14.95
2019-02-09T21:57:14.294Z,15.28
2019-02-09T21:59:53.586Z,16.62
2019-02-09T22:02:42.347Z,16.62
2019-02-09T22:05:17.440Z,15.93
2019-02-09T22:07:57.002Z,16.42
2019-02-09T22:10:36.951Z,16.40
2019-02-09T22:13:17.167Z,16.35
2019-02-09T22:15:56.400Z,16.10
2019-02-09T22:18:40.716Z,16.00
2019-02-09T22:21:21.644Z,16.12
2019-02-09T22:24:01.499Z,15.85
2019-02-09T22:26:41.846Z,16.50
2019-02-09T22:29:22.192Z,16.87
2019-02-09T22:32:04.090Z,15.38
2019-02-09T22:34:45.337Z,15.85
2019-02-09T22:37:24.394Z,16.35
2019-02-09T22:40:04.452Z,15.85
2019-02-09T22:42:43.748Z,16.80
2019-02-09T22:45:24.657Z,16.67
2019-02-09T22:48:04.752Z,16.23
2019-02-09T22:50:48.814Z,16.25
2019-02-09T22:53:27.849Z,16.45
2019-02-09T22:56:07.070Z,17.10
2019-02-09T22:58:47.989Z,17.75
2019-02-09T23:01:33.934Z,16.90
2019-02-09T23:04:52.381Z,16.27
2019-02-09T23:07:34.132Z,16.70
2019-02-09T23:10:16.211Z,17.07
2019-02-09T23:12:55.508Z,17.67
2019-02-09T23:15:35.597Z,17.50
2019-02-09T23:18:14.229Z,17.85
2019-02-09T23:20:53.070Z,17.90
2019-02-09T23:23:32.644Z,18.15
2019-02-09T23:26:11.379Z,16.57
2019-02-09T23:28:50.234Z,17.70
2019-02-09T23:31:28.928Z,17.77
2019-02-09T23:34:07.755Z,19.05
2019-02-09T23:36:48.060Z,18.55
2019-02-09T23:39:27.042Z,18.55
2019-02-09T23:42:07.131Z,19.05
2019-02-09T23:44:46.587Z,20.68
2019-02-09T23:47:25.754Z,18.77
2019-02-09T23:50:08.471Z,20.00
2019-02-09T23:52:48.627Z,19.48
2019-02-09T23:55:29.935Z,18.42
2019-02-09T23:58:10.081Z,20.37
